sensor_id;sensor_type;location;lat;lon;timestamp;temperature;humidity
20070;DHT22;10195;50.868;4.382;2022-09-09T00:04:28;16.20;99.90
20070;DHT22;10195;50.868;4.382;2022-09-09T00:10:13;16.20;99.90
20070;DHT22;10195;50.868;4.382;2022-09-09T00:12:53;16.30;99.90
20070;DHT22;10195;50.868;4.382;2022-09-09T00:15:27;16.20;99.90
20070;DHT22;10195;50.868;4.382;2022-09-09T00:18:13;16.10;99.90
20070;DHT22;10195;50.868;4.382;2022-09-09T00:23:28;16.10;99.90
20070;DHT22;10195;50.868;4.382;2022-09-09T00:29:20;16.00;99.90
20070;DHT22;10195;50.868;4.382;2022-09-09T00:31:41;16.00;99.90
20070;DHT22;10195;50.868;4.382;2022-09-09T00:34:21;15.90;99.90
20070;DHT22;10195;50.868;4.382;2022-09-09T00:36:50;15.90;99.90
20070;DHT22;10195;50.868;4.382;2022-09-09T00:39:30;15.90;99.90
20070;DHT22;10195;50.868;4.382;2022-09-09T00:44:36;16.10;99.90
20070;DHT22;10195;50.868;4.382;2022-09-09T00:57:29;16.30;99.90
20070;DHT22;10195;50.868;4.382;2022-09-09T01:05:44;16.30;99.90
20070;DHT22;10195;50.868;4.382;2022-09-09T01:10:58;16.30;99.90
20070;DHT22;10195;50.868;4.382;2022-09-09T01:13:28;16.30;99.90
20070;DHT22;10195;50.868;4.382;2022-09-09T01:16:00;16.40;99.90
20070;DHT22;10195;50.868;4.382;2022-09-09T01:18:49;16.40;99.90
20070;DHT22;10195;50.868;4.382;2022-09-09T01:21:49;16.30;99.90
20070;DHT22;10195;50.868;4.382;2022-09-09T01:24:35;16.30;99.90
20070;DHT22;10195;50.868;4.382;2022-09-09T01:27:05;16.30;99.90
20070;DHT22;10195;50.868;4.382;2022-09-09T01:29:32;16.20;99.90
20070;DHT22;10195;50.868;4.382;2022-09-09T01:32:35;16.30;99.90
20070;DHT22;10195;50.868;4.382;2022-09-09T01:34:48;16.40;99.90
20070;DHT22;10195;50.868;4.382;2022-09-09T01:37:15;16.20;99.90
20070;DHT22;10195;50.868;4.382;2022-09-09T01:39:43;16.20;99.90
20070;DHT22;10195;50.868;4.382;2022-09-09T01:42:12;16.10;99.90
20070;DHT22;10195;50.868;4.382;2022-09-09T01:44:39;16.10;99.90
20070;DHT22;10195;50.868;4.382;2022-09-09T01:47:05;16.00;99.90
20070;DHT22;10195;50.868;4.382;2022-09-09T01:49:31;16.00;99.90
20070;DHT22;10195;50.868;4.382;2022-09-09T01:51:58;15.90;99.90
20070;DHT22;10195;50.868;4.382;2022-09-09T01:54:27;15.90;99.90
20070;DHT22;10195;50.868;4.382;2022-09-09T02:02:47;16.10;99.90
20070;DHT22;10195;50.868;4.382;2022-09-09T02:07:48;16.10;99.90
20070;DHT22;10195;50.868;4.382;2022-09-09T02:12:51;16.00;99.90
20070;DHT22;10195;50.868;4.382;2022-09-09T02:15:26;16.00;99.90
20070;DHT22;10195;50.868;4.382;2022-09-09T02:17:56;16.00;99.90
20070;DHT22;10195;50.868;4.382;2022-09-09T02:20:24;16.00;99.90
20070;DHT22;10195;50.868;4.382;2022-09-09T02:22:53;15.90;99.90
20070;DHT22;10195;50.868;4.382;2022-09-09T02:25:22;16.00;99.90
20070;DHT22;10195;50.868;4.382;2022-09-09T02:27:50;16.10;99.90
20070;DHT22;10195;50.868;4.382;2022-09-09T02:30:20;16.10;99.90
20070;DHT22;10195;50.868;4.382;2022-09-09T02:32:47;16.10;99.90
20070;DHT22;10195;50.868;4.382;2022-09-09T02:35:19;16.10;99.90
20070;DHT22;10195;50.868;4.382;2022-09-09T02:37:46;16.10;99.90
20070;DHT22;10195;50.868;4.382;2022-09-09T02:40:14;16.00;99.90
20070;DHT22;10195;50.868;4.382;2022-09-09T02:42:44;16.00;99.90
20070;DHT22;10195;50.868;4.382;2022-09-09T02:45:12;16.00;99.90
20070;DHT22;10195;50.868;4.382;2022-09-09T02:50:34;16.10;99.90
20070;DHT22;10195;50.868;4.382;2022-09-09T02:53:18;16.10;99.90
20070;DHT22;10195;50.868;4.382;2022-09-09T02:55:46;16.10;99.90
20070;DHT22;10195;50.868;4.382;2022-09-09T02:58:16;16.00;99.90
20070;DHT22;10195;50.868;4.382;2022-09-09T03:00:50;16.10;99.90
20070;DHT22;10195;50.868;4.382;2022-09-09T03:03:16;16.10;99.90
20070;DHT22;10195;50.868;4.382;2022-09-09T03:05:43;16.20;99.90
20070;DHT22;10195;50.868;4.382;2022-09-09T03:08:09;16.10;99.90
20070;DHT22;10195;50.868;4.382;2022-09-09T03:10:35;16.20;99.90
20070;DHT22;10195;50.868;4.382;2022-09-09T03:13:02;16.20;99.90
20070;DHT22;10195;50.868;4.382;2022-09-09T03:15:31;16.10;99.90
20070;DHT22;10195;50.868;4.382;2022-09-09T03:17:58;16.20;99.90
20070;DHT22;10195;50.868;4.382;2022-09-09T03:20:28;16.10;99.90
20070;DHT22;10195;50.868;4.382;2022-09-09T03:22:55;16.10;99.90
20070;DHT22;10195;50.868;4.382;2022-09-09T03:25:22;16.00;99.90
20070;DHT22;10195;50.868;4.382;2022-09-09T03:27:51;15.90;99.90
20070;DHT22;10195;50.868;4.382;2022-09-09T03:30:23;15.80;99.90
20070;DHT22;10195;50.868;4.382;2022-09-09T03:32:50;15.90;99.90
20070;DHT22;10195;50.868;4.382;2022-09-09T03:35:16;15.90;99.90
20070;DHT22;10195;50.868;4.382;2022-09-09T03:37:42;15.90;99.90
20070;DHT22;10195;50.868;4.382;2022-09-09T03:40:08;15.90;99.90
20070;DHT22;10195;50.868;4.382;2022-09-09T03:42:35;15.80;99.90
20070;DHT22;10195;50.868;4.382;2022-09-09T03:45:06;15.80;99.90
20070;DHT22;10195;50.868;4.382;2022-09-09T03:47:34;15.80;99.90
20070;DHT22;10195;50.868;4.382;2022-09-09T03:49:59;15.80;99.90
20070;DHT22;10195;50.868;4.382;2022-09-09T03:52:25;15.80;99.90
20070;DHT22;10195;50.868;4.382;2022-09-09T03:54:52;15.80;99.90
20070;DHT22;10195;50.868;4.382;2022-09-09T03:57:19;15.80;99.90
20070;DHT22;10195;50.868;4.382;2022-09-09T03:59:44;15.80;99.90
20070;DHT22;10195;50.868;4.382;2022-09-09T04:02:10;15.80;99.90
20070;DHT22;10195;50.868;4.382;2022-09-09T04:04:36;15.90;99.90
20070;DHT22;10195;50.868;4.382;2022-09-09T04:07:02;15.80;99.90
20070;DHT22;10195;50.868;4.382;2022-09-09T04:09:28;15.80;99.90
20070;DHT22;10195;50.868;4.382;2022-09-09T04:11:53;15.80;99.90
20070;DHT22;10195;50.868;4.382;2022-09-09T04:14:20;15.80;99.90
20070;DHT22;10195;50.868;4.382;2022-09-09T04:16:46;15.90;99.90
20070;DHT22;10195;50.868;4.382;2022-09-09T04:19:13;15.90;99.90
20070;DHT22;10195;50.868;4.382;2022-09-09T04:21:42;15.80;99.90
20070;DHT22;10195;50.868;4.382;2022-09-09T04:24:08;15.80;99.90
20070;DHT22;10195;50.868;4.382;2022-09-09T04:26:34;15.90;99.90
20070;DHT22;10195;50.868;4.382;2022-09-09T04:29:02;15.90;99.90
20070;DHT22;10195;50.868;4.382;2022-09-09T04:31:27;15.90;99.90
20070;DHT22;10195;50.868;4.382;2022-09-09T04:33:53;15.80;99.90
20070;DHT22;10195;50.868;4.382;2022-09-09T04:36:19;15.80;99.90
20070;DHT22;10195;50.868;4.382;2022-09-09T04:38:45;15.70;99.90
20070;DHT22;10195;50.868;4.382;2022-09-09T04:41:11;15.80;99.90
20070;DHT22;10195;50.868;4.382;2022-09-09T04:43:38;15.80;99.90
20070;DHT22;10195;50.868;4.382;2022-09-09T04:46:04;15.70;99.90
20070;DHT22;10195;50.868;4.382;2022-09-09T04:48:31;15.70;99.90
20070;DHT22;10195;50.868;4.382;2022-09-09T04:51:06;15.70;99.90
20070;DHT22;10195;50.868;4.382;2022-09-09T04:53:32;15.70;99.90
20070;DHT22;10195;50.868;4.382;2022-09-09T04:58:28;15.70;99.90
20070;DHT22;10195;50.868;4.382;2022-09-09T05:00:54;15.70;99.90
20070;DHT22;10195;50.868;4.382;2022-09-09T05:03:19;15.70;99.90
20070;DHT22;10195;50.868;4.382;2022-09-09T05:05:45;15.60;99.90
20070;DHT22;10195;50.868;4.382;2022-09-09T05:08:11;15.60;99.90
20070;DHT22;10195;50.868;4.382;2022-09-09T05:10:38;15.60;99.90
20070;DHT22;10195;50.868;4.382;2022-09-09T05:13:04;15.60;99.90
20070;DHT22;10195;50.868;4.382;2022-09-09T05:15:30;15.60;99.90
20070;DHT22;10195;50.868;4.382;2022-09-09T05:18:00;15.70;99.90
20070;DHT22;10195;50.868;4.382;2022-09-09T05:20:26;15.70;99.90
20070;DHT22;10195;50.868;4.382;2022-09-09T05:22:56;15.70;99.90
20070;DHT22;10195;50.868;4.382;2022-09-09T05:25:23;15.80;99.90
20070;DHT22;10195;50.868;4.382;2022-09-09T05:27:51;15.80;99.90
20070;DHT22;10195;50.868;4.382;2022-09-09T05:30:17;15.80;99.90
20070;DHT22;10195;50.868;4.382;2022-09-09T05:32:44;15.80;99.90
20070;DHT22;10195;50.868;4.382;2022-09-09T05:35:10;15.90;99.90
20070;DHT22;10195;50.868;4.382;2022-09-09T05:37:35;16.10;99.90
20070;DHT22;10195;50.868;4.382;2022-09-09T05:40:01;16.10;99.90
20070;DHT22;10195;50.868;4.382;2022-09-09T05:42:30;16.10;99.90
20070;DHT22;10195;50.868;4.382;2022-09-09T05:44:56;16.10;99.90
20070;DHT22;10195;50.868;4.382;2022-09-09T05:47:23;16.20;99.90
20070;DHT22;10195;50.868;4.382;2022-09-09T05:49:49;16.20;99.90
20070;DHT22;10195;50.868;4.382;2022-09-09T05:52:14;16.30;99.90
20070;DHT22;10195;50.868;4.382;2022-09-09T05:54:40;16.20;99.90
20070;DHT22;10195;50.868;4.382;2022-09-09T05:57:06;16.20;99.90
20070;DHT22;10195;50.868;4.382;2022-09-09T05:59:32;16.30;99.90
20070;DHT22;10195;50.868;4.382;2022-09-09T06:01:58;16.30;99.90
20070;DHT22;10195;50.868;4.382;2022-09-09T06:04:24;16.30;99.90
20070;DHT22;10195;50.868;4.382;2022-09-09T06:06:50;16.20;99.90
20070;DHT22;10195;50.868;4.382;2022-09-09T06:09:16;16.30;99.90
20070;DHT22;10195;50.868;4.382;2022-09-09T06:11:42;16.40;99.90
20070;DHT22;10195;50.868;4.382;2022-09-09T06:14:08;16.40;99.90
20070;DHT22;10195;50.868;4.382;2022-09-09T06:16:34;16.50;99.90
20070;DHT22;10195;50.868;4.382;2022-09-09T06:19:01;16.50;99.90
20070;DHT22;10195;50.868;4.382;2022-09-09T06:21:33;16.70;99.90
20070;DHT22;10195;50.868;4.382;2022-09-09T06:23:59;17.00;99.90
20070;DHT22;10195;50.868;4.382;2022-09-09T06:26:38;17.10;99.90
20070;DHT22;10195;50.868;4.382;2022-09-09T06:29:07;17.00;99.90
20070;DHT22;10195;50.868;4.382;2022-09-09T06:31:34;17.10;99.90
20070;DHT22;10195;50.868;4.382;2022-09-09T06:34:05;17.30;99.90
20070;DHT22;10195;50.868;4.382;2022-09-09T06:36:38;17.40;99.90
20070;DHT22;10195;50.868;4.382;2022-09-09T06:39:05;17.30;99.90
20070;DHT22;10195;50.868;4.382;2022-09-09T06:41:32;17.20;99.90
20070;DHT22;10195;50.868;4.382;2022-09-09T06:43:58;17.20;99.90
20070;DHT22;10195;50.868;4.382;2022-09-09T06:46:27;17.10;99.90
20070;DHT22;10195;50.868;4.382;2022-09-09T06:48:53;17.10;99.90
20070;DHT22;10195;50.868;4.382;2022-09-09T06:51:22;17.10;99.90
20070;DHT22;10195;50.868;4.382;2022-09-09T06:53:51;16.90;99.90
20070;DHT22;10195;50.868;4.382;2022-09-09T06:56:18;16.90;99.90
20070;DHT22;10195;50.868;4.382;2022-09-09T06:58:45;16.70;99.90
20070;DHT22;10195;50.868;4.382;2022-09-09T07:01:16;17.00;99.90
20070;DHT22;10195;50.868;4.382;2022-09-09T07:03:46;17.10;99.90
20070;DHT22;10195;50.868;4.382;2022-09-09T07:06:19;17.10;99.90
20070;DHT22;10195;50.868;4.382;2022-09-09T07:08:53;17.00;99.90
20070;DHT22;10195;50.868;4.382;2022-09-09T07:11:21;17.00;99.90
20070;DHT22;10195;50.868;4.382;2022-09-09T07:13:47;17.10;99.90
20070;DHT22;10195;50.868;4.382;2022-09-09T07:16:18;17.30;99.90
20070;DHT22;10195;50.868;4.382;2022-09-09T07:18:44;17.10;99.90
20070;DHT22;10195;50.868;4.382;2022-09-09T07:21:12;17.20;99.90
20070;DHT22;10195;50.868;4.382;2022-09-09T07:23:38;17.20;99.90
20070;DHT22;10195;50.868;4.382;2022-09-09T07:26:09;17.40;99.90
20070;DHT22;10195;50.868;4.382;2022-09-09T07:28:36;17.40;99.90
20070;DHT22;10195;50.868;4.382;2022-09-09T07:31:02;17.50;99.90
20070;DHT22;10195;50.868;4.382;2022-09-09T07:33:29;17.30;99.90
20070;DHT22;10195;50.868;4.382;2022-09-09T07:36:17;17.40;99.90
20070;DHT22;10195;50.868;4.382;2022-09-09T07:38:48;17.30;99.90
20070;DHT22;10195;50.868;4.382;2022-09-09T07:41:32;17.20;99.90
20070;DHT22;10195;50.868;4.382;2022-09-09T07:44:03;17.10;99.90
20070;DHT22;10195;50.868;4.382;2022-09-09T07:46:29;17.20;99.90
20070;DHT22;10195;50.868;4.382;2022-09-09T07:48:56;17.20;99.90
20070;DHT22;10195;50.868;4.382;2022-09-09T07:51:25;17.10;99.90
20070;DHT22;10195;50.868;4.382;2022-09-09T07:53:56;17.20;99.90
20070;DHT22;10195;50.868;4.382;2022-09-09T07:56:26;17.20;99.90
20070;DHT22;10195;50.868;4.382;2022-09-09T07:58:54;17.60;99.90
20070;DHT22;10195;50.868;4.382;2022-09-09T08:01:21;17.70;99.90
20070;DHT22;10195;50.868;4.382;2022-09-09T08:03:53;17.90;99.90
20070;DHT22;10195;50.868;4.382;2022-09-09T08:06:20;17.90;99.90
20070;DHT22;10195;50.868;4.382;2022-09-09T08:08:49;17.90;99.90
20070;DHT22;10195;50.868;4.382;2022-09-09T08:11:15;18.00;99.90
20070;DHT22;10195;50.868;4.382;2022-09-09T08:13:42;17.90;99.90
20070;DHT22;10195;50.868;4.382;2022-09-09T08:16:15;18.40;99.90
20070;DHT22;10195;50.868;4.382;2022-09-09T08:18:41;18.70;99.90
20070;DHT22;10195;50.868;4.382;2022-09-09T08:21:16;18.70;99.90
20070;DHT22;10195;50.868;4.382;2022-09-09T08:23:44;18.70;99.90
20070;DHT22;10195;50.868;4.382;2022-09-09T08:26:16;18.20;99.90
20070;DHT22;10195;50.868;4.382;2022-09-09T08:28:43;18.20;99.90
20070;DHT22;10195;50.868;4.382;2022-09-09T08:31:17;18.00;99.90
20070;DHT22;10195;50.868;4.382;2022-09-09T08:33:44;18.00;99.90
20070;DHT22;10195;50.868;4.382;2022-09-09T08:36:18;18.00;99.90
20070;DHT22;10195;50.868;4.382;2022-09-09T08:38:48;17.90;99.90
20070;DHT22;10195;50.868;4.382;2022-09-09T08:41:40;17.80;99.90
20070;DHT22;10195;50.868;4.382;2022-09-09T08:47:12;18.00;99.90
20070;DHT22;10195;50.868;4.382;2022-09-09T08:52:54;17.90;99.90
20070;DHT22;10195;50.868;4.382;2022-09-09T08:57:53;17.50;99.90
20070;DHT22;10195;50.868;4.382;2022-09-09T09:00:20;17.50;99.90
20070;DHT22;10195;50.868;4.382;2022-09-09T09:05:48;17.50;99.90
20070;DHT22;10195;50.868;4.382;2022-09-09T09:08:30;17.60;99.90
20070;DHT22;10195;50.868;4.382;2022-09-09T09:10:59;17.70;99.90
20070;DHT22;10195;50.868;4.382;2022-09-09T09:16:19;17.60;99.90
20070;DHT22;10195;50.868;4.382;2022-09-09T09:18:46;17.50;99.90
20070;DHT22;10195;50.868;4.382;2022-09-09T09:24:01;17.50;99.90
20070;DHT22;10195;50.868;4.382;2022-09-09T09:26:31;17.50;99.90
20070;DHT22;10195;50.868;4.382;2022-09-09T09:28:59;17.60;99.90
20070;DHT22;10195;50.868;4.382;2022-09-09T09:31:26;17.60;99.90
20070;DHT22;10195;50.868;4.382;2022-09-09T09:33:55;17.70;99.90
20070;DHT22;10195;50.868;4.382;2022-09-09T09:36:46;17.80;99.90
20070;DHT22;10195;50.868;4.382;2022-09-09T09:39:27;17.90;99.90
20070;DHT22;10195;50.868;4.382;2022-09-09T09:41:53;17.90;99.90
20070;DHT22;10195;50.868;4.382;2022-09-09T09:44:31;17.70;99.90
20070;DHT22;10195;50.868;4.382;2022-09-09T09:47:19;17.50;99.90
20070;DHT22;10195;50.868;4.382;2022-09-09T09:50:17;17.50;99.90
20070;DHT22;10195;50.868;4.382;2022-09-09T09:52:57;17.60;99.90
20070;DHT22;10195;50.868;4.382;2022-09-09T09:55:23;17.60;99.90
20070;DHT22;10195;50.868;4.382;2022-09-09T09:57:50;17.80;99.90
20070;DHT22;10195;50.868;4.382;2022-09-09T10:00:18;17.80;99.90
20070;DHT22;10195;50.868;4.382;2022-09-09T10:02:45;17.80;99.90
20070;DHT22;10195;50.868;4.382;2022-09-09T10:05:25;18.00;99.90
20070;DHT22;10195;50.868;4.382;2022-09-09T10:08:02;18.00;99.90
20070;DHT22;10195;50.868;4.382;2022-09-09T10:11:04;18.00;99.90
20070;DHT22;10195;50.868;4.382;2022-09-09T10:19:10;18.20;99.90
20070;DHT22;10195;50.868;4.382;2022-09-09T10:36:23;18.60;99.90
20070;DHT22;10195;50.868;4.382;2022-09-09T10:39:03;19.30;99.90
20070;DHT22;10195;50.868;4.382;2022-09-09T10:41:53;19.50;99.90
20070;DHT22;10195;50.868;4.382;2022-09-09T10:52:57;20.50;99.90
20070;DHT22;10195;50.868;4.382;2022-09-09T10:55:48;20.30;99.90
20070;DHT22;10195;50.868;4.382;2022-09-09T10:58:27;20.20;99.90
20070;DHT22;10195;50.868;4.382;2022-09-09T11:00:57;20.30;99.90
20070;DHT22;10195;50.868;4.382;2022-09-09T11:03:29;20.80;99.90
20070;DHT22;10195;50.868;4.382;2022-09-09T11:06:12;21.00;99.90
20070;DHT22;10195;50.868;4.382;2022-09-09T11:08:39;20.50;99.90
20070;DHT22;10195;50.868;4.382;2022-09-09T11:11:19;20.30;99.90
20070;DHT22;10195;50.868;4.382;2022-09-09T11:16:40;20.00;99.90
20070;DHT22;10195;50.868;4.382;2022-09-09T11:21:54;19.80;99.90
20070;DHT22;10195;50.868;4.382;2022-09-09T11:24:38;19.80;99.90
20070;DHT22;10195;50.868;4.382;2022-09-09T11:38:25;19.70;99.90
20070;DHT22;10195;50.868;4.382;2022-09-09T11:41:01;19.70;99.90
20070;DHT22;10195;50.868;4.382;2022-09-09T11:46:05;19.60;99.90
20070;DHT22;10195;50.868;4.382;2022-09-09T11:48:35;19.50;99.90
20070;DHT22;10195;50.868;4.382;2022-09-09T11:53:30;19.60;99.90
20070;DHT22;10195;50.868;4.382;2022-09-09T11:57:01;19.60;99.90
20070;DHT22;10195;50.868;4.382;2022-09-09T11:59:27;19.70;99.90
20070;DHT22;10195;50.868;4.382;2022-09-09T12:02:17;19.60;99.90
20070;DHT22;10195;50.868;4.382;2022-09-09T12:05:06;19.50;99.90
20070;DHT22;10195;50.868;4.382;2022-09-09T12:07:59;19.70;99.90
20070;DHT22;10195;50.868;4.382;2022-09-09T12:10:30;19.70;99.90
20070;DHT22;10195;50.868;4.382;2022-09-09T12:13:16;19.80;99.90
20070;DHT22;10195;50.868;4.382;2022-09-09T12:15:51;19.60;99.90
20070;DHT22;10195;50.868;4.382;2022-09-09T12:18:24;19.60;99.90
20070;DHT22;10195;50.868;4.382;2022-09-09T12:28:58;19.30;99.90
20070;DHT22;10195;50.868;4.382;2022-09-09T12:34:32;19.40;99.90
20070;DHT22;10195;50.868;4.382;2022-09-09T12:37:06;19.60;99.90
20070;DHT22;10195;50.868;4.382;2022-09-09T12:39:47;19.80;99.90
20070;DHT22;10195;50.868;4.382;2022-09-09T12:42:20;19.90;99.90
20070;DHT22;10195;50.868;4.382;2022-09-09T12:47:21;20.40;99.90
20070;DHT22;10195;50.868;4.382;2022-09-09T12:49:47;20.60;99.90
20070;DHT22;10195;50.868;4.382;2022-09-09T12:52:32;20.80;99.90
20070;DHT22;10195;50.868;4.382;2022-09-09T12:55:03;20.70;99.90
20070;DHT22;10195;50.868;4.382;2022-09-09T12:57:34;20.50;99.90
20070;DHT22;10195;50.868;4.382;2022-09-09T13:00:21;20.80;99.90
20070;DHT22;10195;50.868;4.382;2022-09-09T13:02:56;20.80;99.90
20070;DHT22;10195;50.868;4.382;2022-09-09T13:05:36;20.70;99.90
20070;DHT22;10195;50.868;4.382;2022-09-09T13:08:04;20.70;99.90
20070;DHT22;10195;50.868;4.382;2022-09-09T13:10:34;20.90;99.90
20070;DHT22;10195;50.868;4.382;2022-09-09T13:13:01;20.80;99.90
20070;DHT22;10195;50.868;4.382;2022-09-09T13:15:28;20.60;99.90
20070;DHT22;10195;50.868;4.382;2022-09-09T13:18:02;20.60;99.90
20070;DHT22;10195;50.868;4.382;2022-09-09T13:20:28;20.70;99.90
20070;DHT22;10195;50.868;4.382;2022-09-09T13:22:56;20.60;99.90
20070;DHT22;10195;50.868;4.382;2022-09-09T13:25:29;20.40;99.90
20070;DHT22;10195;50.868;4.382;2022-09-09T13:28:01;20.30;99.90
20070;DHT22;10195;50.868;4.382;2022-09-09T13:30:29;20.40;99.90
20070;DHT22;10195;50.868;4.382;2022-09-09T13:41:09;21.00;99.90
20070;DHT22;10195;50.868;4.382;2022-09-09T13:43:43;20.90;99.90
20070;DHT22;10195;50.868;4.382;2022-09-09T13:51:45;21.10;99.90
20070;DHT22;10195;50.868;4.382;2022-09-09T13:54:14;21.60;99.90
20070;DHT22;10195;50.868;4.382;2022-09-09T13:56:41;21.40;99.90
20070;DHT22;10195;50.868;4.382;2022-09-09T13:59:14;21.40;99.90
20070;DHT22;10195;50.868;4.382;2022-09-09T14:01:41;21.60;99.90
20070;DHT22;10195;50.868;4.382;2022-09-09T14:04:07;21.40;99.90
20070;DHT22;10195;50.868;4.382;2022-09-09T14:06:34;21.10;99.90
20070;DHT22;10195;50.868;4.382;2022-09-09T14:09:04;21.10;99.90
20070;DHT22;10195;50.868;4.382;2022-09-09T14:11:30;21.10;99.90
20070;DHT22;10195;50.868;4.382;2022-09-09T14:13:55;21.10;99.90
20070;DHT22;10195;50.868;4.382;2022-09-09T14:16:21;21.30;99.90
20070;DHT22;10195;50.868;4.382;2022-09-09T14:18:47;21.10;99.90
20070;DHT22;10195;50.868;4.382;2022-09-09T14:21:13;21.10;99.90
20070;DHT22;10195;50.868;4.382;2022-09-09T14:23:41;21.00;99.90
20070;DHT22;10195;50.868;4.382;2022-09-09T14:26:07;20.80;99.90
20070;DHT22;10195;50.868;4.382;2022-09-09T14:28:33;20.60;99.90
20070;DHT22;10195;50.868;4.382;2022-09-09T14:31:03;20.60;99.90
20070;DHT22;10195;50.868;4.382;2022-09-09T14:33:30;20.60;99.90
20070;DHT22;10195;50.868;4.382;2022-09-09T14:36:04;20.80;99.90
20070;DHT22;10195;50.868;4.382;2022-09-09T14:38:32;20.90;99.90
20070;DHT22;10195;50.868;4.382;2022-09-09T14:40:59;20.80;99.90
20070;DHT22;10195;50.868;4.382;2022-09-09T14:43:25;20.70;99.90
20070;DHT22;10195;50.868;4.382;2022-09-09T14:45:52;20.80;99.90
20070;DHT22;10195;50.868;4.382;2022-09-09T14:48:18;20.90;99.90
20070;DHT22;10195;50.868;4.382;2022-09-09T14:50:44;21.10;99.90
20070;DHT22;10195;50.868;4.382;2022-09-09T14:53:10;21.00;99.90
20070;DHT22;10195;50.868;4.382;2022-09-09T14:55:36;21.10;99.90
20070;DHT22;10195;50.868;4.382;2022-09-09T14:58:03;21.10;99.90
20070;DHT22;10195;50.868;4.382;2022-09-09T15:00:29;21.10;99.90
20070;DHT22;10195;50.868;4.382;2022-09-09T15:02:55;21.00;99.90
20070;DHT22;10195;50.868;4.382;2022-09-09T15:05:22;21.00;99.90
20070;DHT22;10195;50.868;4.382;2022-09-09T15:07:47;20.90;99.90
20070;DHT22;10195;50.868;4.382;2022-09-09T15:10:16;20.90;99.90
20070;DHT22;10195;50.868;4.382;2022-09-09T15:12:43;21.00;99.90
20070;DHT22;10195;50.868;4.382;2022-09-09T15:15:09;21.10;99.90
20070;DHT22;10195;50.868;4.382;2022-09-09T15:17:35;21.10;99.90
20070;DHT22;10195;50.868;4.382;2022-09-09T15:20:02;21.10;99.90
20070;DHT22;10195;50.868;4.382;2022-09-09T15:22:28;21.10;99.90
20070;DHT22;10195;50.868;4.382;2022-09-09T15:24:53;21.10;99.90
20070;DHT22;10195;50.868;4.382;2022-09-09T15:27:19;20.90;99.90
20070;DHT22;10195;50.868;4.382;2022-09-09T15:29:45;20.90;99.90
20070;DHT22;10195;50.868;4.382;2022-09-09T15:32:12;20.90;99.90
20070;DHT22;10195;50.868;4.382;2022-09-09T15:34:37;20.80;99.90
20070;DHT22;10195;50.868;4.382;2022-09-09T15:37:03;20.70;99.90
20070;DHT22;10195;50.868;4.382;2022-09-09T15:39:29;20.70;99.90
20070;DHT22;10195;50.868;4.382;2022-09-09T15:41:54;20.50;99.90
20070;DHT22;10195;50.868;4.382;2022-09-09T15:44:20;20.50;99.90
20070;DHT22;10195;50.868;4.382;2022-09-09T15:46:50;20.30;99.90
20070;DHT22;10195;50.868;4.382;2022-09-09T15:49:21;20.40;99.90
20070;DHT22;10195;50.868;4.382;2022-09-09T15:52:00;20.50;99.90
20070;DHT22;10195;50.868;4.382;2022-09-09T15:54:31;20.60;99.90
20070;DHT22;10195;50.868;4.382;2022-09-09T15:56:59;20.40;99.90
20070;DHT22;10195;50.868;4.382;2022-09-09T15:59:28;20.50;99.90
20070;DHT22;10195;50.868;4.382;2022-09-09T16:01:54;20.50;99.90
20070;DHT22;10195;50.868;4.382;2022-09-09T16:04:22;20.60;99.90
20070;DHT22;10195;50.868;4.382;2022-09-09T16:07:04;20.80;99.90
20070;DHT22;10195;50.868;4.382;2022-09-09T16:09:30;20.80;99.90
20070;DHT22;10195;50.868;4.382;2022-09-09T16:11:58;21.00;99.90
20070;DHT22;10195;50.868;4.382;2022-09-09T16:14:24;20.90;99.90
20070;DHT22;10195;50.868;4.382;2022-09-09T16:16:53;20.70;99.90
20070;DHT22;10195;50.868;4.382;2022-09-09T16:19:19;20.60;99.90
20070;DHT22;10195;50.868;4.382;2022-09-09T16:21:46;20.50;99.90
20070;DHT22;10195;50.868;4.382;2022-09-09T16:24:15;20.30;99.90
20070;DHT22;10195;50.868;4.382;2022-09-09T16:26:44;20.20;99.90
20070;DHT22;10195;50.868;4.382;2022-09-09T16:29:11;20.10;99.90
20070;DHT22;10195;50.868;4.382;2022-09-09T16:31:37;20.10;99.90
20070;DHT22;10195;50.868;4.382;2022-09-09T16:34:03;20.10;99.90
20070;DHT22;10195;50.868;4.382;2022-09-09T16:36:30;20.20;99.90
20070;DHT22;10195;50.868;4.382;2022-09-09T16:38:58;20.00;99.90
20070;DHT22;10195;50.868;4.382;2022-09-09T16:41:25;20.00;99.90
20070;DHT22;10195;50.868;4.382;2022-09-09T16:44:01;19.80;99.90
20070;DHT22;10195;50.868;4.382;2022-09-09T16:46:29;19.90;99.90
20070;DHT22;10195;50.868;4.382;2022-09-09T16:49:00;20.00;99.90
20070;DHT22;10195;50.868;4.382;2022-09-09T16:51:29;20.10;99.90
20070;DHT22;10195;50.868;4.382;2022-09-09T16:53:57;20.00;99.90
20070;DHT22;10195;50.868;4.382;2022-09-09T16:56:25;19.90;99.90
20070;DHT22;10195;50.868;4.382;2022-09-09T16:58:54;20.10;99.90
20070;DHT22;10195;50.868;4.382;2022-09-09T17:01:21;20.30;99.90
20070;DHT22;10195;50.868;4.382;2022-09-09T17:03:47;20.30;99.90
20070;DHT22;10195;50.868;4.382;2022-09-09T17:06:14;20.40;99.90
20070;DHT22;10195;50.868;4.382;2022-09-09T17:08:41;20.50;99.90
20070;DHT22;10195;50.868;4.382;2022-09-09T17:11:15;20.40;99.90
20070;DHT22;10195;50.868;4.382;2022-09-09T17:13:45;20.10;99.90
20070;DHT22;10195;50.868;4.382;2022-09-09T17:16:12;19.80;99.90
20070;DHT22;10195;50.868;4.382;2022-09-09T17:18:38;19.90;99.90
20070;DHT22;10195;50.868;4.382;2022-09-09T17:21:09;19.90;99.90
20070;DHT22;10195;50.868;4.382;2022-09-09T17:23:36;19.70;99.90
20070;DHT22;10195;50.868;4.382;2022-09-09T17:26:05;19.70;99.90
20070;DHT22;10195;50.868;4.382;2022-09-09T17:28:36;19.50;99.90
20070;DHT22;10195;50.868;4.382;2022-09-09T17:31:08;19.60;99.90
20070;DHT22;10195;50.868;4.382;2022-09-09T17:33:36;19.60;99.90
20070;DHT22;10195;50.868;4.382;2022-09-09T17:36:11;19.60;99.90
20070;DHT22;10195;50.868;4.382;2022-09-09T17:38:37;19.60;99.90
20070;DHT22;10195;50.868;4.382;2022-09-09T17:41:05;19.50;99.90
20070;DHT22;10195;50.868;4.382;2022-09-09T17:43:31;19.30;99.90
20070;DHT22;10195;50.868;4.382;2022-09-09T17:48:33;19.10;99.90
20070;DHT22;10195;50.868;4.382;2022-09-09T17:50:59;18.90;99.90
20070;DHT22;10195;50.868;4.382;2022-09-09T17:53:25;18.80;99.90
20070;DHT22;10195;50.868;4.382;2022-09-09T17:55:51;18.70;99.90
20070;DHT22;10195;50.868;4.382;2022-09-09T17:58:17;18.60;99.90
20070;DHT22;10195;50.868;4.382;2022-09-09T18:00:43;18.50;99.90
20070;DHT22;10195;50.868;4.382;2022-09-09T18:03:08;18.50;99.90
20070;DHT22;10195;50.868;4.382;2022-09-09T18:05:34;18.50;99.90
20070;DHT22;10195;50.868;4.382;2022-09-09T18:08:00;18.40;99.90
20070;DHT22;10195;50.868;4.382;2022-09-09T18:10:25;18.40;99.90
20070;DHT22;10195;50.868;4.382;2022-09-09T18:12:51;18.40;99.90
20070;DHT22;10195;50.868;4.382;2022-09-09T18:15:17;18.40;99.90